Time;durP1;ratioP1;P1;durP2;ratioP2;P2;SDS_P1;SDS_P2;PMS_P1;PMS_P2;Temp;Humidity;BMP_temperature;BMP_pressure;BME280_temperature;BME280_humidity;BME280_pressure;Samples;Min_cycle;Max_cycle;Signal;HPM_P1;HPM_P2
2024/02/12 00:02:05;;;;;;;37.70;18.58;;;9.80;99.90;;;;;;5062897;28;20314;-65
2024/02/12 00:04:31;;;;;;;45.13;18.08;;;9.80;99.90;;;;;;5060999;28;20104;-65
2024/02/12 00:06:56;;;;;;;36.00;16.77;;;9.80;99.90;;;;;;5065685;28;20120;-65
2024/02/12 00:09:23;;;;;;;45.33;16.92;;;9.80;99.90;;;;;;5063677;28;20032;-65
2024/02/12 00:11:50;;;;;;;38.88;17.08;;;9.80;99.90;;;;;;5059919;28;20032;-65
2024/02/12 00:14:16;;;;;;;47.10;17.80;;;9.80;99.90;;;;;;5062609;28;20098;-65
2024/02/12 00:16:42;;;;;;;34.92;16.85;;;9.80;99.90;;;;;;5059839;28;20111;-65
2024/02/12 00:19:11;;;;;;;36.45;16.10;;;9.80;99.90;;;;;;5065110;28;20116;-64
2024/02/12 00:21:36;;;;;;;34.08;16.17;;;9.80;99.90;;;;;;5061541;28;20030;-64
2024/02/12 00:24:06;;;;;;;34.55;16.60;;;9.70;99.90;;;;;;5062990;28;20024;-65
2024/02/12 00:26:32;;;;;;;35.47;16.58;;;9.80;99.90;;;;;;5061291;28;20103;-64
2024/02/12 00:28:58;;;;;;;35.13;14.77;;;9.70;99.90;;;;;;5065151;28;20025;-64
2024/02/12 00:31:26;;;;;;;35.78;15.02;;;9.80;99.90;;;;;;5058706;28;20112;-65
2024/02/12 00:33:54;;;;;;;;;;;9.70;99.90;;;;;;5061649;28;20040;-65
2024/02/12 00:36:20;;;;;;;32.22;13.45;;;9.70;99.90;;;;;;5062035;28;19916;-65
2024/02/12 00:38:47;;;;;;;34.95;13.65;;;9.70;99.90;;;;;;5061030;28;20028;-65
2024/02/12 00:41:13;;;;;;;30.87;13.53;;;9.70;99.90;;;;;;5064993;28;20105;-65
2024/02/12 00:43:43;;;;;;;28.60;12.80;;;9.70;99.90;;;;;;5066132;28;20527;-66
2024/02/12 00:46:09;;;;;;;37.13;13.90;;;9.60;99.90;;;;;;5056250;28;20514;-64
2024/02/12 00:48:35;;;;;;;32.10;12.75;;;9.60;99.90;;;;;;5059937;28;20101;-65
2024/02/12 00:51:01;;;;;;;25.35;12.23;;;9.60;99.90;;;;;;5064291;28;20131;-65
2024/02/12 00:53:27;;;;;;;27.63;11.73;;;9.60;99.90;;;;;;5063120;28;20112;-66
2024/02/12 00:55:53;;;;;;;29.90;12.27;;;9.60;99.90;;;;;;5062967;28;20082;-64
2024/02/12 00:58:19;;;;;;;31.17;12.10;;;9.60;99.90;;;;;;5061546;28;20400;-66
2024/02/12 01:00:45;;;;;;;27.63;11.93;;;9.60;99.90;;;;;;5057652;28;20020;-64
2024/02/12 01:03:10;;;;;;;26.63;11.35;;;9.60;99.90;;;;;;5061773;28;20025;-65
2024/02/12 01:05:36;;;;;;;25.67;11.85;;;9.60;99.90;;;;;;5062440;28;20086;-64
2024/02/12 01:08:02;;;;;;;23.20;9.63;;;9.60;99.90;;;;;;5062230;28;20032;-65
2024/02/12 01:10:27;;;;;;;24.33;11.77;;;9.60;99.90;;;;;;5062799;28;20036;-64
2024/02/12 01:12:53;;;;;;;26.10;10.88;;;9.60;99.90;;;;;;5063298;28;20029;-64
2024/02/12 01:15:19;;;;;;;27.52;10.25;;;9.60;99.90;;;;;;5062792;28;20040;-65
2024/02/12 01:17:44;;;;;;;22.38;10.15;;;9.60;99.90;;;;;;5061147;28;20024;-65
2024/02/12 01:20:11;;;;;;;20.92;10.35;;;9.60;99.90;;;;;;5058553;28;20043;-65
2024/02/12 01:22:41;;;;;;;22.33;9.77;;;9.50;99.90;;;;;;5059751;28;20237;-65
2024/02/12 01:25:07;;;;;;;25.70;10.13;;;9.50;99.90;;;;;;5061671;28;20029;-66
2024/02/12 01:27:32;;;;;;;26.83;11.98;;;9.50;99.90;;;;;;5061010;28;20243;-66
2024/02/12 01:29:58;;;;;;;20.70;9.90;;;9.50;99.90;;;;;;5062703;28;20086;-65
2024/02/12 01:32:25;;;;;;;20.67;9.48;;;9.50;99.90;;;;;;5072266;28;20400;-65
2024/02/12 01:34:51;;;;;;;28.10;9.85;;;9.50;99.90;;;;;;5060534;28;20025;-64
2024/02/12 01:37:16;;;;;;;22.55;9.63;;;9.50;99.90;;;;;;5063592;28;20039;-64
2024/02/12 01:39:42;;;;;;;20.48;9.35;;;9.50;99.90;;;;;;5076989;28;20043;-65
2024/02/12 01:42:12;;;;;;;25.33;10.45;;;9.50;99.90;;;;;;5062267;28;20032;-65
2024/02/12 01:44:48;;;;;;;25.17;9.23;;;9.50;99.90;;;;;;5061968;28;20519;-64
2024/02/12 01:47:15;;;;;;;19.10;9.50;;;9.50;99.90;;;;;;5059459;28;20032;-65
2024/02/12 01:49:42;;;;;;;27.85;9.88;;;9.50;99.90;;;;;;5059608;28;20424;-66
2024/02/12 01:52:10;;;;;;;20.30;9.25;;;9.50;99.90;;;;;;5058943;28;20079;-65
2024/02/12 01:54:38;;;;;;;25.48;9.45;;;9.40;99.90;;;;;;5060366;28;20443;-64
2024/02/12 01:57:05;;;;;;;19.25;8.90;;;9.40;99.90;;;;;;5060689;28;20450;-65
2024/02/12 01:59:31;;;;;;;19.63;8.60;;;9.50;99.90;;;;;;5060507;28;20137;-65
2024/02/12 02:01:56;;;;;;;17.25;7.78;;;9.40;99.90;;;;;;5056362;28;20150;-65
2024/02/12 02:04:24;;;;;;;24.13;8.00;;;9.40;99.90;;;;;;5060525;28;20025;-64
2024/02/12 02:06:53;;;;;;;18.23;8.05;;;9.40;99.90;;;;;;5061911;28;20067;-65
2024/02/12 02:09:19;;;;;;;17.10;7.45;;;9.40;99.90;;;;;;5060151;28;20037;-66
2024/02/12 02:11:44;;;;;;;15.52;8.23;;;9.40;99.90;;;;;;5056648;28;20040;-66
2024/02/12 02:14:11;;;;;;;20.90;8.57;;;9.40;99.90;;;;;;5059627;28;20025;-65
2024/02/12 02:16:38;;;;;;;16.10;6.72;;;9.40;99.90;;;;;;5060019;28;20052;-65
2024/02/12 02:19:04;;;;;;;20.55;7.20;;;9.40;99.90;;;;;;5059972;28;20047;-65
2024/02/12 02:21:30;;;;;;;18.83;7.57;;;9.40;99.90;;;;;;5057742;28;20025;-65
2024/02/12 02:23:59;;;;;;;20.95;7.53;;;9.40;99.90;;;;;;5075331;28;20032;-65
2024/02/12 02:26:27;;;;;;;18.92;7.97;;;9.40;99.90;;;;;;5063433;28;20031;-65
2024/02/12 02:28:53;;;;;;;18.83;7.57;;;9.40;99.90;;;;;;5060897;28;20035;-65
2024/02/12 02:31:18;;;;;;;18.02;7.03;;;9.40;99.90;;;;;;5060042;28;20028;-65
2024/02/12 02:33:44;;;;;;;21.70;8.30;;;9.40;99.90;;;;;;5056194;28;20477;-64
2024/02/12 02:36:09;;;;;;;19.15;7.22;;;9.40;99.90;;;;;;5057478;28;20025;-64
2024/02/12 02:38:35;;;;;;;15.65;7.07;;;9.40;99.90;;;;;;5062776;28;20036;-65
2024/02/12 02:41:01;;;;;;;20.67;7.85;;;9.40;99.90;;;;;;5059069;28;20858;-64
2024/02/12 02:43:27;;;;;;;21.33;7.97;;;9.30;99.90;;;;;;5054588;28;20029;-65
2024/02/12 02:45:54;;;;;;;16.92;7.05;;;9.40;99.90;;;;;;5061690;28;20024;-64
2024/02/12 02:48:20;;;;;;;22.92;7.45;;;9.30;99.90;;;;;;5055646;28;20037;-65
2024/02/12 02:50:46;;;;;;;23.95;6.88;;;9.30;99.90;;;;;;5057830;28;20039;-65
2024/02/12 02:53:12;;;;;;;16.95;6.95;;;9.40;99.90;;;;;;5061247;28;20159;-64
2024/02/12 02:55:38;;;;;;;12.85;6.22;;;9.40;99.90;;;;;;5060120;28;20491;-65
2024/02/12 02:58:03;;;;;;;14.95;6.97;;;9.30;99.90;;;;;;5062325;28;20052;-65
2024/02/12 03:00:30;;;;;;;18.70;7.15;;;9.40;99.90;;;;;;5058755;28;20074;-64
2024/02/12 03:02:56;;;;;;;19.20;7.57;;;9.30;99.90;;;;;;5058074;28;20064;-65
2024/02/12 03:05:22;;;;;;;10.95;6.13;;;9.30;99.90;;;;;;5060791;28;20031;-65
2024/02/12 03:07:48;;;;;;;19.17;6.68;;;9.30;99.90;;;;;;5064854;28;20024;-66
2024/02/12 03:10:14;;;;;;;11.55;6.05;;;9.30;99.90;;;;;;5061449;28;20044;-65
2024/02/12 03:12:41;;;;;;;13.75;6.40;;;9.30;99.90;;;;;;5058453;28;20051;-65
2024/02/12 03:15:11;;;;;;;14.20;6.38;;;9.30;99.90;;;;;;5073608;28;20179;-66
2024/02/12 03:17:40;;;;;;;18.13;6.40;;;9.30;99.90;;;;;;5056167;28;20044;-65
2024/02/12 03:20:10;;;;;;;16.15;6.43;;;9.30;99.90;;;;;;5057719;28;20433;-64
2024/02/12 03:22:40;;;;;;;17.83;6.78;;;9.30;99.90;;;;;;5057101;28;20366;-64
2024/02/12 03:25:08;;;;;;;17.65;6.70;;;9.30;99.90;;;;;;5060954;28;20046;-65
2024/02/12 03:27:34;;;;;;;16.27;6.93;;;9.30;99.90;;;;;;5061608;28;20111;-65
2024/02/12 03:30:01;;;;;;;14.50;6.70;;;9.30;99.90;;;;;;5057090;28;20033;-64
2024/02/12 03:32:26;;;;;;;14.85;6.93;;;9.30;99.90;;;;;;5061073;28;20021;-64
2024/02/12 03:34:53;;;;;;;18.02;6.65;;;9.20;99.90;;;;;;5060730;28;20503;-65
2024/02/12 03:37:19;;;;;;;11.20;5.78;;;9.20;99.90;;;;;;5062349;28;20427;-64
2024/02/12 03:39:47;;;;;;;14.25;6.57;;;9.20;99.90;;;;;;5064491;28;20024;-66
2024/02/12 03:42:13;;;;;;;17.08;7.22;;;9.20;99.90;;;;;;5061633;28;20574;-64
2024/02/12 03:44:40;;;;;;;17.58;6.68;;;9.20;99.90;;;;;;5061435;28;20037;-65
2024/02/12 03:47:08;;;;;;;19.33;7.30;;;9.20;99.90;;;;;;5058624;28;20287;-67
2024/02/12 04:00:35;;;;;;;15.10;7.57;;;9.20;99.90;;;;;;5062069;28;20036;-64
2024/02/12 04:03:01;;;;;;;25.88;8.43;;;9.20;99.90;;;;;;5075911;28;20401;-65
2024/02/12 04:05:27;;;;;;;15.27;7.45;;;9.20;99.90;;;;;;5063008;28;20025;-65
2024/02/12 04:07:53;;;;;;;18.92;8.40;;;9.20;99.90;;;;;;5063976;28;20028;-64
2024/02/12 04:10:19;;;;;;;19.98;8.70;;;9.20;99.90;;;;;;5063005;28;20020;-65
2024/02/12 04:12:47;;;;;;;17.90;8.93;;;9.20;99.90;;;;;;5060959;28;20032;-67
2024/02/12 04:15:15;;;;;;;20.80;8.82;;;9.20;99.90;;;;;;5063328;28;20043;-65
2024/02/12 04:17:42;;;;;;;19.92;9.60;;;9.20;99.90;;;;;;5075932;28;20052;-65
2024/02/12 04:20:10;;;;;;;24.57;10.10;;;9.30;99.90;;;;;;5059585;28;20461;-65
2024/02/12 04:22:36;;;;;;;23.55;9.68;;;9.20;99.90;;;;;;5061741;28;20111;-65
2024/02/12 04:25:04;;;;;;;20.15;9.85;;;9.20;99.90;;;;;;5063459;28;20509;-65
2024/02/12 04:27:31;;;;;;;26.67;10.82;;;9.20;99.90;;;;;;5060871;28;20108;-64
2024/02/12 04:29:57;;;;;;;29.80;11.65;;;9.20;99.90;;;;;;5064466;28;20037;-65
2024/02/12 04:32:23;;;;;;;24.85;10.77;;;9.20;99.90;;;;;;5059876;28;20039;-65
2024/02/12 04:34:48;;;;;;;21.58;10.32;;;9.20;99.90;;;;;;5061416;28;20033;-65
2024/02/12 04:37:14;;;;;;;28.75;11.75;;;9.20;99.90;;;;;;5066408;28;20025;-65
2024/02/12 04:39:40;;;;;;;25.00;10.77;;;9.30;99.90;;;;;;5064319;28;20029;-65
2024/02/12 04:42:06;;;;;;;22.83;11.52;;;9.20;99.90;;;;;;5066098;28;20025;-65
2024/02/12 04:44:32;;;;;;;29.23;11.18;;;9.20;99.90;;;;;;5063857;28;20427;-65
2024/02/12 04:47:01;;;;;;;21.35;10.60;;;9.20;99.90;;;;;;5064846;28;20400;-65
2024/02/12 04:49:31;;;;;;;24.02;11.18;;;9.20;99.90;;;;;;5066496;28;20627;-67
2024/02/12 04:51:57;;;;;;;24.20;11.05;;;9.20;99.90;;;;;;5062853;28;20043;-65
2024/02/12 04:54:25;;;;;;;22.67;11.68;;;9.20;99.90;;;;;;5066124;28;20404;-65
2024/02/12 04:56:50;;;;;;;23.35;11.93;;;9.10;99.90;;;;;;5063181;28;20555;-65
2024/02/12 04:59:18;;;;;;;21.15;11.30;;;9.10;99.90;;;;;;5064290;28;20064;-65
2024/02/12 05:01:45;;;;;;;29.63;12.43;;;9.20;99.90;;;;;;5063781;28;20476;-66
2024/02/12 05:04:11;;;;;;;23.57;11.60;;;9.10;99.90;;;;;;5066089;28;20039;-65
2024/02/12 05:06:37;;;;;;;23.73;12.07;;;9.10;99.90;;;;;;5064878;28;20511;-65
2024/02/12 05:09:09;;;;;;;24.00;11.40;;;9.10;99.90;;;;;;5066070;28;20029;-64
2024/02/12 05:11:35;;;;;;;23.58;11.88;;;9.00;99.90;;;;;;5064101;28;20032;-66
2024/02/12 05:14:00;;;;;;;27.55;12.20;;;9.00;99.90;;;;;;5060638;28;20036;-65
2024/02/12 05:16:30;;;;;;;28.90;12.73;;;9.00;99.90;;;;;;5059737;28;20035;-65
2024/02/12 05:24:33;;;;;;;25.70;12.10;;;8.90;99.90;;;;;;5064774;28;20065;-65
2024/02/12 05:27:00;;;;;;;29.83;13.07;;;8.80;99.90;;;;;;5066612;28;20024;-65
2024/02/12 05:29:27;;;;;;;25.25;12.55;;;8.80;99.90;;;;;;5065605;28;20024;-65
2024/02/12 05:31:53;;;;;;;25.92;12.30;;;8.80;99.90;;;;;;5062780;28;20032;-65
2024/02/12 05:34:20;;;;;;;38.65;13.13;;;8.80;99.90;;;;;;5062600;28;20423;-65
2024/02/12 05:36:51;;;;;;;25.83;12.73;;;8.80;99.90;;;;;;5062350;28;20054;-67
2024/02/12 05:39:19;;;;;;;24.50;12.55;;;8.80;99.90;;;;;;5061348;28;20325;-65
2024/02/12 05:41:48;;;;;;;32.38;13.75;;;8.80;99.90;;;;;;5060691;28;20618;-65
2024/02/12 05:44:14;;;;;;;31.15;13.60;;;8.80;99.90;;;;;;5058227;28;20488;-64
2024/02/12 05:46:39;;;;;;;26.65;13.73;;;8.90;99.90;;;;;;5060592;28;20039;-65
2024/02/12 05:49:06;;;;;;;30.58;13.90;;;8.90;99.90;;;;;;5063615;28;20032;-64
2024/02/12 05:51:33;;;;;;;29.55;13.00;;;8.90;99.90;;;;;;5060025;28;20183;-64
2024/02/12 05:54:00;;;;;;;30.60;14.00;;;8.90;99.90;;;;;;5064220;28;20308;-65
2024/02/12 05:56:26;;;;;;;31.33;13.93;;;8.90;99.90;;;;;;5059367;28;20021;-66
2024/02/12 05:58:51;;;;;;;34.85;14.00;;;8.90;99.90;;;;;;5066815;28;20148;-65
2024/02/12 06:01:17;;;;;;;29.85;13.90;;;8.90;99.90;;;;;;5058570;28;20111;-65
2024/02/12 06:03:43;;;;;;;31.25;13.23;;;8.90;99.90;;;;;;5057188;28;20448;-64
2024/02/12 06:06:08;;;;;;;29.48;13.77;;;8.90;99.90;;;;;;5061716;28;20404;-65
2024/02/12 06:08:34;;;;;;;35.15;14.82;;;8.90;99.90;;;;;;5064048;28;20024;-65
2024/02/12 06:10:59;;;;;;;28.58;13.90;;;8.90;99.90;;;;;;5059302;28;20118;-64
2024/02/12 06:13:25;;;;;;;34.63;13.75;;;8.90;99.90;;;;;;5058568;28;20043;-64
2024/02/12 06:15:51;;;;;;;30.75;14.30;;;8.90;99.90;;;;;;5054733;28;20082;-65
2024/02/12 06:18:17;;;;;;;28.38;14.45;;;8.90;99.90;;;;;;5061742;28;20033;-65
2024/02/12 06:20:42;;;;;;;31.95;14.52;;;8.90;99.90;;;;;;5059722;28;20083;-65
2024/02/12 06:23:08;;;;;;;31.98;14.63;;;8.90;99.90;;;;;;5056269;28;20048;-65
2024/02/12 06:25:34;;;;;;;36.65;14.52;;;8.90;99.90;;;;;;5058201;28;20055;-65
2024/02/12 06:28:02;;;;;;;35.03;14.57;;;8.90;99.90;;;;;;5056796;28;20056;-64
2024/02/12 06:30:28;;;;;;;35.35;16.02;;;8.90;99.90;;;;;;5053500;28;20033;-65
2024/02/12 06:32:53;;;;;;;31.15;14.50;;;9.00;99.90;;;;;;5056698;28;20512;-64
2024/02/12 06:35:19;;;;;;;36.45;14.73;;;9.00;99.90;;;;;;5056984;28;20025;-66
2024/02/12 06:37:47;;;;;;;32.25;15.27;;;8.90;99.90;;;;;;5053422;28;20426;-65
2024/02/12 06:40:13;;;;;;;36.42;15.25;;;9.00;99.90;;;;;;5060818;28;20435;-65
2024/02/12 06:42:39;;;;;;;35.22;15.63;;;9.00;99.90;;;;;;5059890;28;20050;-65
2024/02/12 06:45:06;;;;;;;31.70;14.55;;;9.00;99.90;;;;;;5057789;28;20031;-65
2024/02/12 06:47:32;;;;;;;39.75;17.02;;;9.00;99.90;;;;;;5056624;28;20036;-65
2024/02/12 06:49:57;;;;;;;38.95;16.38;;;9.00;99.90;;;;;;5055709;28;20036;-65
2024/02/12 06:52:23;;;;;;;37.80;16.10;;;8.90;99.90;;;;;;5057140;28;20452;-65
2024/02/12 06:54:49;;;;;;;40.55;15.80;;;9.00;99.90;;;;;;5073315;28;20377;-65
2024/02/12 06:57:15;;;;;;;40.28;16.75;;;8.90;99.90;;;;;;5058280;28;20031;-66
2024/02/12 06:59:42;;;;;;;37.00;17.35;;;8.90;99.90;;;;;;5064139;28;20036;-65
2024/02/12 07:02:08;;;;;;;37.40;16.13;;;9.00;99.90;;;;;;5063616;28;20029;-65
2024/02/12 07:04:34;;;;;;;39.10;17.13;;;8.90;99.90;;;;;;5059114;28;20546;-64
2024/02/12 07:07:00;;;;;;;40.50;17.52;;;8.90;99.90;;;;;;5062429;28;20111;-66
2024/02/12 07:09:25;;;;;;;35.63;16.83;;;8.90;99.90;;;;;;5064584;28;20036;-67
2024/02/12 07:11:51;;;;;;;42.92;17.70;;;8.90;99.90;;;;;;5065355;28;20024;-65
2024/02/12 07:14:17;;;;;;;37.03;17.92;;;8.90;99.90;;;;;;5066304;28;20037;-65
2024/02/12 07:16:44;;;;;;;42.78;16.75;;;8.90;99.90;;;;;;5066662;28;20024;-65
2024/02/12 07:19:10;;;;;;;39.47;17.83;;;9.00;99.90;;;;;;5060730;28;20040;-65
2024/02/12 07:21:36;;;;;;;39.20;17.80;;;9.00;99.90;;;;;;5064515;28;20111;-65
2024/02/12 07:24:02;;;;;;;48.60;20.00;;;9.00;99.90;;;;;;5063641;28;20115;-66
2024/02/12 07:26:28;;;;;;;38.63;17.80;;;9.00;99.90;;;;;;5061276;28;20029;-65
2024/02/12 07:28:53;;;;;;;37.08;16.95;;;9.00;99.90;;;;;;5061296;28;20028;-66
2024/02/12 07:31:19;;;;;;;38.63;18.58;;;9.00;99.90;;;;;;5055353;28;20032;-64
2024/02/12 07:33:45;;;;;;;42.13;18.10;;;9.00;99.90;;;;;;5051889;28;20392;-65
2024/02/12 07:36:10;;;;;;;40.00;19.17;;;9.00;99.90;;;;;;5056879;28;20032;-66
2024/02/12 07:38:40;;;;;;;41.95;18.45;;;8.90;99.90;;;;;;5061805;28;20051;-65
2024/02/12 07:41:05;;;;;;;41.70;17.73;;;9.00;99.90;;;;;;5062382;28;20028;-65
2024/02/12 07:43:31;;;;;;;40.25;17.80;;;9.00;99.90;;;;;;5065051;28;20218;-65
2024/02/12 07:45:58;;;;;;;39.35;18.85;;;8.90;99.90;;;;;;5057826;28;20120;-66
2024/02/12 07:48:24;;;;;;;37.30;18.38;;;9.00;99.90;;;;;;5061109;28;20024;-65
2024/02/12 07:50:53;;;;;;;44.90;19.45;;;9.00;99.90;;;;;;5061099;28;20033;-64
2024/02/12 07:53:25;;;;;;;39.53;17.48;;;8.90;99.90;;;;;;5061991;28;20508;-65
2024/02/12 07:55:54;;;;;;;40.97;18.45;;;8.90;99.90;;;;;;5057942;28;20318;-65
2024/02/12 07:58:20;;;;;;;46.05;17.60;;;8.90;99.90;;;;;;5058433;28;20033;-65
2024/02/12 08:00:49;;;;;;;45.25;18.95;;;8.90;99.90;;;;;;5056348;28;20032;-65
2024/02/12 08:03:19;;;;;;;48.92;18.92;;;8.80;99.90;;;;;;5058804;28;20044;-66
2024/02/12 08:05:48;;;;;;;38.88;16.80;;;8.90;99.90;;;;;;5061840;28;20662;-66
2024/02/12 08:08:13;;;;;;;41.75;20.60;;;8.90;99.90;;;;;;5063661;28;20317;-65
2024/02/12 08:10:40;;;;;;;42.22;19.25;;;8.90;99.90;;;;;;5059157;28;20440;-65
2024/02/12 08:13:06;;;;;;;41.03;19.05;;;9.10;99.90;;;;;;5054980;28;20059;-65
2024/02/12 08:15:32;;;;;;;37.35;17.63;;;9.00;99.90;;;;;;5059203;28;20031;-66
2024/02/12 08:17:58;;;;;;;44.67;18.55;;;9.00;99.90;;;;;;5059105;28;20083;-66
2024/02/12 08:20:26;;;;;;;44.35;17.95;;;9.00;99.90;;;;;;5057173;28;20484;-65
2024/02/12 08:22:54;;;;;;;37.42;17.23;;;9.00;99.90;;;;;;5060120;28;20024;-65
2024/02/12 08:25:20;;;;;;;36.28;17.83;;;9.10;99.90;;;;;;5059976;28;20115;-65
2024/02/12 08:27:46;;;;;;;38.00;17.70;;;9.10;99.90;;;;;;5058676;28;20024;-67
2024/02/12 08:30:14;;;;;;;42.38;18.58;;;9.10;99.90;;;;;;5061467;28;20378;-66
2024/02/12 08:32:40;;;;;;;39.40;16.42;;;9.10;99.90;;;;;;5062679;28;20031;-64
2024/02/12 08:35:07;;;;;;;40.45;18.45;;;9.10;99.90;;;;;;5056961;28;20041;-65
2024/02/12 08:37:32;;;;;;;41.40;19.60;;;9.10;99.90;;;;;;5062163;28;20379;-65
2024/02/12 08:39:58;;;;;;;41.88;17.20;;;9.10;99.90;;;;;;5060927;28;20440;-65
2024/02/12 08:42:26;;;;;;;43.97;19.20;;;9.20;99.90;;;;;;5060925;28;20040;-66
2024/02/12 08:44:52;;;;;;;38.17;17.92;;;9.20;99.90;;;;;;5062279;28;20032;-65
2024/02/12 08:47:18;;;;;;;39.78;18.25;;;9.20;99.90;;;;;;5058215;28;20037;-65
2024/02/12 08:49:45;;;;;;;37.97;17.75;;;9.20;99.90;;;;;;5060278;28;20041;-65
2024/02/12 08:52:11;;;;;;;38.10;16.52;;;9.20;99.90;;;;;;5058962;28;20029;-66
2024/02/12 08:54:37;;;;;;;37.92;17.52;;;9.20;99.90;;;;;;5063883;28;20064;-65
2024/02/12 08:57:05;;;;;;;37.80;17.38;;;9.20;99.90;;;;;;5056651;28;20029;-65
2024/02/12 08:59:32;;;;;;;39.60;17.77;;;9.20;99.90;;;;;;5055898;28;20107;-65
2024/02/12 09:01:58;;;;;;;38.08;17.70;;;9.20;99.90;;;;;;5059482;28;20039;-65
2024/02/12 09:04:24;;;;;;;36.60;16.75;;;9.20;99.90;;;;;;5059637;28;20028;-67
2024/02/12 09:06:49;;;;;;;34.20;16.85;;;9.20;99.90;;;;;;5064093;28;20023;-65
2024/02/12 09:09:15;;;;;;;36.08;15.40;;;9.20;99.90;;;;;;5060322;28;20017;-65
2024/02/12 09:11:42;;;;;;;34.25;15.82;;;9.20;99.90;;;;;;5060379;28;20033;-64
2024/02/12 09:14:09;;;;;;;31.63;15.02;;;9.20;99.90;;;;;;5061311;28;20038;-65
2024/02/12 09:16:41;;;;;;;34.90;17.08;;;9.20;99.90;;;;;;5058492;28;20039;-66
2024/02/12 09:19:07;;;;;;;37.22;16.73;;;9.20;99.90;;;;;;5058469;28;20033;-67
2024/02/12 09:21:33;;;;;;;33.25;16.08;;;9.20;99.90;;;;;;5061965;28;20024;-65
2024/02/12 09:23:59;;;;;;;30.25;15.23;;;9.20;99.90;;;;;;5064053;28;20027;-65
2024/02/12 09:26:25;;;;;;;29.50;15.38;;;9.20;99.90;;;;;;5061700;28;20040;-65
2024/02/12 09:28:52;;;;;;;35.92;16.75;;;9.20;99.90;;;;;;5058440;28;20029;-65
2024/02/12 09:31:18;;;;;;;39.35;17.27;;;9.20;99.90;;;;;;5059028;28;20032;-64
2024/02/12 09:33:45;;;;;;;35.78;16.70;;;9.20;99.90;;;;;;5054244;28;20493;-64
2024/02/12 09:36:11;;;;;;;35.85;15.77;;;9.20;99.90;;;;;;5057612;28;20075;-64
2024/02/12 09:38:37;;;;;;;38.95;17.35;;;9.20;99.90;;;;;;5061187;28;20539;-65
2024/02/12 09:41:04;;;;;;;35.88;16.88;;;9.20;99.90;;;;;;5061446;28;20021;-66
2024/02/12 09:43:33;;;;;;;36.58;16.98;;;9.30;99.90;;;;;;5056373;28;20726;-65
2024/02/12 09:46:04;;;;;;;39.58;16.25;;;9.30;99.90;;;;;;5056939;28;20313;-65
2024/02/12 09:48:30;;;;;;;39.90;16.77;;;9.30;99.90;;;;;;5059483;28;20120;-65
2024/02/12 09:50:57;;;;;;;42.03;16.55;;;9.30;99.90;;;;;;5054795;28;20328;-64
2024/02/12 09:53:25;;;;;;;39.05;15.73;;;9.40;99.90;;;;;;5054093;28;20115;-66
2024/02/12 09:55:54;;;;;;;37.78;16.48;;;9.40;99.90;;;;;;5057989;28;20039;-65
2024/02/12 09:58:20;;;;;;;36.45;15.48;;;9.40;99.90;;;;;;5056460;28;20373;-67
2024/02/12 10:00:46;;;;;;;37.15;16.73;;;9.40;99.90;;;;;;5057915;28;20458;-64
2024/02/12 10:03:13;;;;;;;33.58;15.30;;;9.50;99.90;;;;;;5058174;28;20235;-65
2024/02/12 10:05:43;;;;;;;30.90;14.93;;;9.50;99.90;;;;;;5058843;28;20025;-65
2024/02/12 10:08:20;;;;;;;35.35;17.02;;;9.50;99.90;;;;;;5061198;28;20025;-65
2024/02/12 10:10:45;;;;;;;32.78;15.48;;;9.60;99.90;;;;;;5062465;28;20083;-65
2024/02/12 10:13:11;;;;;;;42.72;16.95;;;9.60;99.90;;;;;;5060988;28;20048;-64
2024/02/12 10:15:39;;;;;;;36.80;17.98;;;9.70;99.90;;;;;;5060931;28;20024;-65
2024/02/12 10:18:05;;;;;;;40.05;17.63;;;9.70;99.90;;;;;;5055321;28;20033;-65
2024/02/12 10:20:31;;;;;;;31.15;15.73;;;9.80;99.90;;;;;;5061255;28;20095;-65
2024/02/12 10:23:00;;;;;;;33.45;16.23;;;9.80;99.90;;;;;;5057626;28;20462;-65
2024/02/12 10:25:25;;;;;;;40.08;16.63;;;9.80;99.90;;;;;;5058423;28;20040;-65
2024/02/12 10:27:51;;;;;;;30.23;14.55;;;9.80;99.90;;;;;;5057275;28;20629;-66
2024/02/12 10:30:17;;;;;;;35.03;15.43;;;9.80;99.90;;;;;;5054224;28;20455;-66
2024/02/12 10:32:47;;;;;;;31.48;14.02;;;9.80;99.90;;;;;;5056828;28;20029;-65
2024/02/12 10:35:15;;;;;;;26.73;13.90;;;9.90;99.90;;;;;;5067626;28;20507;-66
2024/02/12 10:37:41;;;;;;;28.92;13.57;;;9.90;99.90;;;;;;5061703;28;20041;-64
2024/02/12 10:40:13;;;;;;;24.15;13.27;;;9.80;99.90;;;;;;5063612;28;20033;-67
2024/02/12 10:42:52;;;;;;;25.65;13.15;;;9.80;99.90;;;;;;5063655;28;20461;-66
2024/02/12 10:45:18;;;;;;;26.08;13.10;;;9.80;99.90;;;;;;5061657;28;20037;-65
2024/02/12 10:47:45;;;;;;;27.10;13.25;;;9.80;99.90;;;;;;5063709;28;20037;-64
2024/02/12 10:50:13;;;;;;;27.33;13.98;;;9.80;99.90;;;;;;5064574;28;20061;-66
2024/02/12 10:52:42;;;;;;;;;;;9.80;99.90;;;;;;5065798;28;20027;-65
2024/02/12 10:55:09;;;;;;;23.52;12.55;;;9.90;99.90;;;;;;5060335;28;19920;-65
2024/02/12 10:57:44;;;;;;;32.03;13.33;;;9.90;99.90;;;;;;5061776;28;20150;-65
2024/02/12 11:00:25;;;;;;;23.92;13.35;;;9.90;99.90;;;;;;5063348;28;20036;-66
2024/02/12 11:02:54;;;;;;;25.60;13.45;;;9.90;99.90;;;;;;5062239;28;20048;-64
2024/02/12 11:05:20;;;;;;;28.70;13.88;;;9.90;99.90;;;;;;5063126;28;20111;-65
2024/02/12 11:07:47;;;;;;;30.85;14.63;;;9.90;99.90;;;;;;5059565;28;20483;-65
2024/02/12 11:10:23;;;;;;;26.23;13.00;;;9.90;99.90;;;;;;5061807;28;20555;-66
2024/02/12 11:12:49;;;;;;;28.55;13.90;;;9.90;99.90;;;;;;5063316;28;20546;-64
2024/02/12 11:15:26;;;;;;;28.25;14.55;;;10.10;99.90;;;;;;5063282;28;20030;-68
2024/02/12 11:17:52;;;;;;;30.05;14.52;;;10.10;99.90;;;;;;5063848;28;20068;-65
2024/02/12 11:20:20;;;;;;;33.85;15.57;;;10.10;99.90;;;;;;5065822;28;20488;-64
2024/02/12 11:22:46;;;;;;;;;;;10.10;99.90;;;;;;5062900;28;20115;-64
2024/02/12 11:25:18;;;;;;;30.25;14.65;;;10.10;99.90;;;;;;5062661;28;19943;-66
2024/02/12 11:27:57;;;;;;;35.28;15.40;;;10.20;99.90;;;;;;5059645;28;20586;-65
2024/02/12 11:30:23;;;;;;;30.23;14.55;;;10.20;99.90;;;;;;5064018;28;20028;-64
2024/02/12 11:32:49;;;;;;;32.15;15.43;;;10.30;99.90;;;;;;5056315;28;20047;-65
2024/02/12 11:35:18;;;;;;;35.80;16.80;;;10.30;99.90;;;;;;5060376;28;20032;-65
2024/02/12 11:37:55;;;;;;;33.70;17.02;;;10.40;99.90;;;;;;5061995;28;20610;-67
2024/02/12 11:40:21;;;;;;;37.58;16.90;;;10.50;99.90;;;;;;5063580;28;20036;-65
2024/02/12 11:42:51;;;;;;;35.47;16.20;;;10.60;99.90;;;;;;5061716;28;20108;-66
2024/02/12 11:45:24;;;;;;;34.65;16.83;;;10.70;99.90;;;;;;5060444;28;20037;-66
2024/02/12 11:47:51;;;;;;;37.85;17.85;;;10.90;99.90;;;;;;5061890;28;20020;-65
2024/02/12 11:50:26;;;;;;;39.28;15.95;;;11.10;99.90;;;;;;5060206;28;20029;-66
2024/02/12 11:52:53;;;;;;;32.72;15.95;;;11.10;99.90;;;;;;5060258;28;20048;-68
2024/02/12 11:55:18;;;;;;;31.58;16.15;;;11.20;99.90;;;;;;5078115;28;20025;-66
2024/02/12 11:57:46;;;;;;;36.78;16.70;;;11.20;99.90;;;;;;5065445;28;20052;-64
2024/02/12 12:00:18;;;;;;;34.95;16.67;;;11.10;99.90;;;;;;5066584;28;20530;-66
2024/02/12 12:02:51;;;;;;;29.83;15.75;;;11.10;99.90;;;;;;5064134;28;20456;-65
2024/02/12 12:05:24;;;;;;;31.63;16.30;;;11.00;99.90;;;;;;5065002;28;20027;-68
2024/02/12 12:07:51;;;;;;;30.95;15.27;;;10.90;99.90;;;;;;5063120;28;20059;-65
2024/02/12 12:10:28;;;;;;;31.83;15.63;;;10.80;99.90;;;;;;5060876;28;20020;-65
2024/02/12 12:12:58;;;;;;;33.40;15.57;;;10.80;99.90;;;;;;5071382;28;20165;-65
2024/02/12 12:15:23;;;;;;;33.03;16.02;;;10.70;99.90;;;;;;5057231;28;20101;-64
2024/02/12 12:17:49;;;;;;;32.22;15.60;;;10.70;99.90;;;;;;5061818;28;20036;-65
2024/02/12 12:20:18;;;;;;;33.08;16.30;;;10.60;99.90;;;;;;5062542;28;20158;-64
2024/02/12 12:22:45;;;;;;;31.77;15.18;;;10.60;99.90;;;;;;5060741;28;20091;-64
2024/02/12 12:25:18;;;;;;;31.50;16.35;;;10.60;99.90;;;;;;5058335;28;20477;-64
2024/02/12 12:27:44;;;;;;;32.58;16.67;;;10.50;99.90;;;;;;5063825;28;20738;-64
2024/02/12 12:30:19;;;;;;;27.40;15.95;;;10.50;99.90;;;;;;5063656;28;20032;-65
2024/02/12 12:32:50;;;;;;;30.98;15.88;;;10.40;99.90;;;;;;5058446;28;20143;-65
2024/02/12 12:35:16;;;;;;;31.13;16.02;;;10.40;99.90;;;;;;5059987;28;20032;-64
2024/02/12 12:37:43;;;;;;;36.15;15.77;;;10.40;99.90;;;;;;5059642;28;20119;-65
2024/02/12 12:40:18;;;;;;;34.88;16.00;;;10.30;99.90;;;;;;5061872;28;20043;-66
2024/02/12 12:42:48;;;;;;;30.02;14.93;;;10.30;99.90;;;;;;5063194;28;20029;-64
2024/02/12 12:45:15;;;;;;;32.28;15.60;;;10.30;99.90;;;;;;5072796;28;20021;-64
2024/02/12 12:47:41;;;;;;;31.47;15.20;;;10.30;99.90;;;;;;5058104;28;20043;-64
2024/02/12 12:50:08;;;;;;;29.52;15.20;;;10.30;99.90;;;;;;5059877;28;20400;-67
2024/02/12 12:52:38;;;;;;;32.85;14.43;;;10.20;99.90;;;;;;5060178;28;20705;-64
2024/02/12 12:55:04;;;;;;;31.67;14.35;;;10.20;99.90;;;;;;5059520;28;20035;-64